Time;durP1;ratioP1;P1;durP2;ratioP2;P2;SDS_P1;SDS_P2;PMS_P1;PMS_P2;Temp;Humidity;BMP_temperature;BMP_pressure;BME280_temperature;BME280_humidity;BME280_pressure;Samples;Min_cycle;Max_cycle;Signal;HPM_P1;HPM_P2
2022/01/20 00:00:43;;;;;;;50.00;22.20;;;;;;;0.34;100.00;99118.06;4822151;29;20030;-61
2022/01/20 00:03:14;;;;;;;43.77;21.13;;;;;;;0.38;100.00;99122.06;4822253;29;20037;-62
2022/01/20 00:06:23;;;;;;;47.20;22.77;;;;;;;0.46;100.00;99126.69;4821141;29;20296;-62
2022/01/20 00:27:33;;;;;;;44.80;20.23;;;;;;;1.35;100.00;99113.41;4821861;29;20065;-62
2022/01/20 00:30:33;;;;;;;44.77;20.90;;;;;;;1.57;100.00;99112.28;4820745;29;20026;-61
2022/01/20 00:32:59;;;;;;;41.77;21.17;;;;;;;1.61;100.00;99115.50;4821722;29;20636;-62
2022/01/20 00:35:30;;;;;;;41.63;20.00;;;;;;;1.51;100.00;99120.72;4821763;29;20306;-61
2022/01/20 00:37:56;;;;;;;38.33;19.93;;;;;;;1.58;100.00;99126.28;4821820;29;20305;-61
2022/01/20 00:40:23;;;;;;;39.13;19.37;;;;;;;1.57;100.00;99122.00;4821774;29;20313;-61
2022/01/20 00:42:49;;;;;;;40.90;19.90;;;;;;;1.69;100.00;99124.34;4824486;29;20489;-61
2022/01/20 00:45:16;;;;;;;34.67;17.87;;;;;;;1.71;100.00;99129.47;4825104;29;20736;-61
2022/01/20 00:47:41;;;;;;;33.53;16.73;;;;;;;1.98;100.00;99132.19;4825057;29;20338;-61
2022/01/20 00:50:09;;;;;;;32.43;16.80;;;;;;;2.05;100.00;99128.03;4824979;29;20266;-61
2022/01/20 00:52:35;;;;;;;32.77;16.73;;;;;;;2.12;100.00;99134.38;4825212;29;20034;-61
2022/01/20 00:55:01;;;;;;;28.70;14.73;;;;;;;2.20;100.00;99131.00;4824914;29;20775;-61
2022/01/20 00:57:27;;;;;;;24.27;13.17;;;;;;;2.71;100.00;99146.38;4824801;29;20118;-61
2022/01/20 00:59:53;;;;;;;25.00;12.53;;;;;;;3.03;100.00;99126.59;4824852;29;20285;-63
2022/01/20 01:02:18;;;;;;;23.70;12.23;;;;;;;3.12;100.00;99141.53;4824979;29;20083;-61
2022/01/20 01:04:44;;;;;;;23.50;11.83;;;;;;;3.17;100.00;99136.66;4823571;29;20531;-61
2022/01/20 01:09:39;;;;;;;21.67;12.10;;;;;;;3.20;100.00;99139.84;4824616;29;20030;-61
2022/01/20 01:12:09;;;;;;;21.83;12.00;;;;;;;3.16;100.00;99135.81;4824477;29;20694;-61
2022/01/20 01:14:35;;;;;;;20.83;10.67;;;;;;;3.35;100.00;99140.13;4824546;29;20326;-61
2022/01/20 01:22:34;;;;;;;21.80;11.43;;;;;;;3.27;100.00;99132.13;4786129;30;20278;-61
2022/01/20 01:25:01;;;;;;;20.50;10.77;;;;;;;3.29;100.00;99138.09;4786148;30;20283;-61
2022/01/20 01:27:32;;;;;;;17.93;9.83;;;;;;;3.36;100.00;99130.38;4786151;29;20465;-61
2022/01/20 01:32:53;;;;;;;17.27;10.00;;;;;;;3.39;100.00;99125.63;4786110;30;20279;-61
2022/01/20 01:35:18;;;;;;;18.10;9.63;;;;;;;3.42;100.00;99122.72;4785488;30;20784;-61
2022/01/20 01:40:29;;;;;;;15.80;9.63;;;;;;;3.41;100.00;99123.69;4785894;30;20291;-61
2022/01/20 01:42:55;;;;;;;19.52;9.93;;;;;;;3.42;100.00;99109.50;4785660;30;20276;-61
2022/01/20 01:45:27;;;;;;;17.30;9.40;;;;;;;3.36;100.00;99102.16;4785514;30;20152;-62
2022/01/20 01:47:53;;;;;;;17.50;9.70;;;;;;;3.29;100.00;99106.41;4785572;29;20446;-62
2022/01/20 01:50:20;;;;;;;15.53;9.00;;;;;;;3.31;100.00;99111.53;4785573;30;20337;-62
2022/01/20 01:52:45;;;;;;;17.97;9.37;;;;;;;3.36;100.00;99102.16;4785456;29;20275;-62
2022/01/20 01:55:11;;;;;;;16.30;9.33;;;;;;;3.38;100.00;99102.03;4770164;30;20282;-62
2022/01/20 01:57:36;;;;;;;18.20;8.87;;;;;;;3.31;100.00;99115.00;4821356;29;20062;-62
2022/01/20 02:00:07;;;;;;;16.70;8.57;;;;;;;3.27;100.00;99103.09;4823743;29;20038;-62
2022/01/20 02:02:33;;;;;;;18.17;9.63;;;;;;;3.33;100.00;99099.84;4824042;29;20480;-62
2022/01/20 02:04:59;;;;;;;14.43;8.80;;;;;;;3.36;100.00;99096.06;4823680;29;20281;-62
2022/01/20 02:20:37;;;;;;;15.27;8.20;;;;;;;3.47;100.00;99099.28;4823511;29;20450;-63
2022/01/20 02:23:03;;;;;;;15.43;7.70;;;;;;;3.54;100.00;99097.72;4823605;29;20365;-62
2022/01/20 02:25:31;;;;;;;15.03;8.13;;;;;;;3.63;100.00;99101.25;4823472;29;20105;-62
2022/01/20 02:28:01;;;;;;;13.77;7.43;;;;;;;3.51;100.00;99098.00;4823543;29;20436;-62
2022/01/20 02:30:28;;;;;;;15.53;8.27;;;;;;;3.60;100.00;99094.44;4823362;29;20671;-62
2022/01/20 02:32:56;;;;;;;12.77;7.73;;;;;;;3.52;100.00;99099.69;4823369;29;20282;-62
2022/01/20 02:35:23;;;;;;;12.67;7.30;;;;;;;3.62;100.00;99089.00;4823260;29;20339;-62
2022/01/20 02:37:55;;;;;;;12.73;7.03;;;;;;;3.59;100.00;99091.97;4823339;29;20282;-62
2022/01/20 02:45:42;;;;;;;11.43;6.80;;;;;;;3.53;100.00;99082.84;4823096;29;20848;-62
2022/01/20 02:48:08;;;;;;;13.03;6.87;;;;;;;3.50;100.00;99088.44;4823088;29;20385;-62
2022/01/20 02:50:34;;;;;;;11.87;7.30;;;;;;;3.50;100.00;99090.22;4823042;29;20105;-62
2022/01/20 02:52:59;;;;;;;14.73;7.67;;;;;;;3.49;100.00;99083.28;4823102;29;20030;-62
2022/01/20 02:55:25;;;;;;;12.97;7.30;;;;;;;3.48;100.00;99085.09;4822799;29;20065;-62
2022/01/20 02:57:51;;;;;;;10.80;6.57;;;;;;;3.55;100.00;99078.25;4822960;29;20046;-62
2022/01/20 03:00:17;;;;;;;11.40;6.50;;;;;;;3.56;100.00;99079.06;4822874;29;20290;-62
2022/01/20 03:02:43;;;;;;;12.20;6.60;;;;;;;3.50;100.00;99077.03;4822905;29;20373;-62
2022/01/20 03:05:12;;;;;;;11.17;6.53;;;;;;;3.45;100.00;99077.50;4821933;29;20360;-62
2022/01/20 03:07:38;;;;;;;10.07;6.13;;;;;;;3.39;100.00;99071.97;4821411;29;20160;-62
2022/01/20 03:10:05;;;;;;;11.73;6.77;;;;;;;3.41;100.00;99072.66;4822579;29;20300;-62
2022/01/20 03:12:31;;;;;;;13.33;6.73;;;;;;;3.36;100.00;99072.28;4822456;29;20050;-62
2022/01/20 03:14:57;;;;;;;11.77;6.60;;;;;;;3.29;100.00;99077.34;4822668;29;20282;-62
2022/01/20 03:17:22;;;;;;;12.00;7.33;;;;;;;3.20;100.00;99065.06;4821321;29;20373;-62
2022/01/20 03:19:48;;;;;;;12.37;6.70;;;;;;;3.24;100.00;99067.22;4822670;29;20026;-62
2022/01/20 03:22:13;;;;;;;11.63;6.53;;;;;;;3.26;100.00;99067.09;4821436;29;20030;-62
2022/01/20 03:24:39;;;;;;;11.97;7.03;;;;;;;3.23;100.00;99056.84;4822599;29;20434;-62
2022/01/20 03:27:05;;;;;;;11.13;6.10;;;;;;;3.26;100.00;99060.00;4821022;29;20076;-62
2022/01/20 03:29:31;;;;;;;11.43;6.20;;;;;;;3.16;100.00;99059.25;4822408;29;20034;-62
2022/01/20 03:31:56;;;;;;;11.17;6.63;;;;;;;3.21;100.00;99056.16;4822346;29;20030;-62
2022/01/20 03:34:22;;;;;;;11.43;6.30;;;;;;;3.09;100.00;99058.19;4822346;29;20548;-62
2022/01/20 03:36:49;;;;;;;12.23;6.23;;;;;;;3.04;100.00;99047.25;4821040;29;20458;-62
2022/01/20 03:39:15;;;;;;;11.53;6.73;;;;;;;3.08;100.00;99050.44;4822206;29;20038;-62
2022/01/20 03:41:41;;;;;;;12.13;6.60;;;;;;;3.04;100.00;99055.16;4822166;29;20266;-62
2022/01/20 03:44:07;;;;;;;11.73;6.67;;;;;;;3.03;100.00;99048.22;4821133;29;20027;-62
2022/01/20 03:46:33;;;;;;;13.07;6.77;;;;;;;3.10;100.00;99045.84;4822184;29;20042;-62
2022/01/20 03:49:08;;;;;;;11.40;6.27;;;;;;;3.01;100.00;99031.72;4822536;29;20384;-62
2022/01/20 03:51:34;;;;;;;11.33;6.10;;;;;;;2.96;100.00;99049.81;4822151;29;20262;-62
2022/01/20 03:54:00;;;;;;;13.30;6.83;;;;;;;2.85;100.00;99050.88;4822568;29;20285;-62
2022/01/20 03:56:26;;;;;;;11.43;6.77;;;;;;;2.91;100.00;99052.91;4822262;29;20038;-62
2022/01/20 03:58:52;;;;;;;13.17;6.87;;;;;;;2.75;100.00;99051.94;4822391;29;20266;-62
2022/01/20 04:01:19;;;;;;;10.60;6.53;;;;;;;2.65;100.00;99054.63;4805809;29;20038;-61
2022/01/20 04:03:44;;;;;;;11.47;6.63;;;;;;;2.54;100.00;99047.72;4822240;29;20335;-61
2022/01/20 04:06:11;;;;;;;13.27;7.57;;;;;;;2.50;100.00;99041.09;4822099;29;20274;-62
2022/01/20 04:08:39;;;;;;;13.97;7.50;;;;;;;2.48;100.00;99039.59;4822129;29;20026;-61
2022/01/20 04:11:07;;;;;;;11.83;7.00;;;;;;;2.44;100.00;99039.03;4821850;29;20377;-62
2022/01/20 04:13:33;;;;;;;13.77;7.63;;;;;;;2.38;100.00;99038.81;4822129;29;20277;-62
2022/01/20 04:16:02;;;;;;;14.13;7.67;;;;;;;2.33;100.00;99044.50;4821850;29;20274;-61
2022/01/20 04:18:28;;;;;;;13.73;7.63;;;;;;;2.26;100.00;99039.97;4825125;29;20042;-62
2022/01/20 04:20:55;;;;;;;13.37;7.80;;;;;;;2.23;100.00;99048.16;4825171;29;20378;-62
2022/01/20 04:23:21;;;;;;;12.87;7.37;;;;;;;2.19;100.00;99043.19;4825278;29;20281;-62
2022/01/20 04:25:47;;;;;;;14.17;7.87;;;;;;;2.12;100.00;99036.84;4825069;29;20266;-62
2022/01/20 04:28:12;;;;;;;14.83;7.57;;;;;;;2.13;100.00;99041.16;4825103;29;20062;-61
2022/01/20 04:30:41;;;;;;;17.37;8.47;;;;;;;2.09;100.00;99029.22;4824948;29;20312;-62
2022/01/20 04:33:06;;;;;;;17.43;8.30;;;;;;;2.03;100.00;99029.81;4824960;29;20034;-62
2022/01/20 04:35:32;;;;;;;15.37;8.17;;;;;;;1.95;100.00;99029.72;4824921;29;20282;-61
2022/01/20 04:37:59;;;;;;;15.70;8.73;;;;;;;2.01;100.00;99026.50;4824921;29;20073;-62
2022/01/20 04:40:24;;;;;;;16.47;8.60;;;;;;;1.94;100.00;99022.78;4824847;29;20094;-62
2022/01/20 04:42:51;;;;;;;13.30;8.17;;;;;;;1.87;100.00;99026.94;4824918;29;20525;-62
2022/01/20 04:45:25;;;;;;;16.53;9.00;;;;;;;1.92;100.00;99037.06;4824952;29;20030;-61
2022/01/20 04:58:28;;;;;;;;;;;;;;;1.80;100.00;99031.16;4825098;29;20141;-61
2022/01/20 05:00:53;;;;;;;18.10;8.77;;;;;;;1.84;100.00;99039.59;4824692;29;20012;-61
2022/01/20 05:03:19;;;;;;;16.37;8.20;;;;;;;1.82;100.00;99039.75;4824751;29;20069;-62
2022/01/20 05:05:45;;;;;;;17.97;9.17;;;;;;;1.79;100.00;99032.94;4824496;29;20098;-61
2022/01/20 05:08:10;;;;;;;17.77;8.63;;;;;;;1.73;100.00;99028.22;4824547;29;20046;-62
2022/01/20 05:10:36;;;;;;;16.80;8.53;;;;;;;1.81;100.00;99015.19;4824522;29;20026;-62
2022/01/20 05:13:07;;;;;;;17.40;8.70;;;;;;;1.78;100.00;99012.84;4824547;29;20070;-62
2022/01/20 05:15:36;;;;;;;17.50;9.23;;;;;;;1.74;100.00;99016.72;4824515;29;20026;-62
2022/01/20 05:18:02;;;;;;;16.87;8.67;;;;;;;1.75;100.00;99010.50;4824433;29;20318;-62
2022/01/20 05:20:28;;;;;;;21.73;9.10;;;;;;;1.72;100.00;99007.34;4823319;29;20764;-61
2022/01/20 05:22:53;;;;;;;16.53;8.60;;;;;;;1.67;100.00;99007.75;4824525;29;20281;-61
2022/01/20 05:25:19;;;;;;;16.70;8.83;;;;;;;1.73;100.00;98996.63;4824548;29;20038;-61
2022/01/20 05:27:45;;;;;;;20.50;8.93;;;;;;;1.74;100.00;99006.19;4823868;29;20515;-61
2022/01/20 05:30:12;;;;;;;16.03;9.03;;;;;;;1.71;100.00;99005.66;4822909;29;20042;-61
2022/01/20 05:32:38;;;;;;;18.27;9.30;;;;;;;1.71;100.00;99006.50;4824336;29;20103;-61
2022/01/20 05:35:04;;;;;;;16.63;9.17;;;;;;;1.71;100.00;98995.13;4824295;29;20736;-62
2022/01/20 05:37:30;;;;;;;16.13;8.70;;;;;;;1.71;100.00;99003.03;4824434;29;20044;-62
2022/01/20 05:39:55;;;;;;;18.33;9.10;;;;;;;1.76;100.00;98993.72;4823014;29;20293;-62
2022/01/20 05:42:21;;;;;;;16.33;8.87;;;;;;;1.75;100.00;98999.94;4824029;29;20049;-62
2022/01/20 05:44:50;;;;;;;20.77;9.53;;;;;;;1.74;100.00;98990.38;4824211;29;20041;-62
2022/01/20 05:47:25;;;;;;;17.60;8.93;;;;;;;1.70;100.00;98988.19;4824182;29;20045;-62
2022/01/20 05:49:51;;;;;;;16.27;8.53;;;;;;;1.66;100.00;98992.09;4824028;29;20433;-62
2022/01/20 05:52:19;;;;;;;15.57;8.83;;;;;;;1.64;100.00;98997.50;4822806;29;20274;-61
2022/01/20 05:54:45;;;;;;;17.17;9.07;;;;;;;1.65;100.00;98991.25;4823773;29;20760;-62
2022/01/20 05:57:11;;;;;;;17.27;9.00;;;;;;;1.52;100.00;98997.81;4823904;29;20663;-61
2022/01/20 05:59:38;;;;;;;18.40;8.40;;;;;;;1.54;100.00;98995.88;4823957;29;20851;-62
2022/01/20 06:02:12;;;;;;;16.07;8.27;;;;;;;1.57;100.00;98985.06;4823784;29;20640;-62
2022/01/20 06:04:38;;;;;;;17.07;8.23;;;;;;;1.59;100.00;98988.38;4824011;29;20273;-62
2022/01/20 06:07:04;;;;;;;13.73;7.33;;;;;;;1.57;100.00;98985.88;4823554;29;20285;-62
2022/01/20 06:09:29;;;;;;;15.40;8.03;;;;;;;1.55;100.00;98982.56;4823768;29;20031;-61
2022/01/20 06:11:55;;;;;;;15.30;8.30;;;;;;;1.57;100.00;98982.41;4823425;29;20290;-61
2022/01/20 06:14:21;;;;;;;15.17;8.30;;;;;;;1.52;100.00;98980.19;4823626;29;20038;-61
2022/01/20 06:16:46;;;;;;;18.70;8.57;;;;;;;1.51;100.00;98970.63;4822113;29;20488;-61
2022/01/20 06:19:12;;;;;;;13.43;7.53;;;;;;;1.53;100.00;98979.22;4822383;29;20041;-61
2022/01/20 06:21:41;;;;;;;15.57;7.50;;;;;;;1.44;100.00;98977.47;4823331;29;20026;-61
2022/01/20 06:24:07;;;;;;;13.67;6.97;;;;;;;1.45;100.00;98985.22;4823551;29;20030;-62
2022/01/20 06:26:32;;;;;;;15.63;7.10;;;;;;;1.42;100.00;98974.97;4822839;29;20273;-61
2022/01/20 06:28:58;;;;;;;12.97;7.10;;;;;;;1.36;100.00;98980.81;4840319;29;20033;-61
2022/01/20 06:31:23;;;;;;;10.97;6.37;;;;;;;1.40;100.00;98986.59;4840168;29;20029;-62
2022/01/20 06:33:49;;;;;;;15.77;7.37;;;;;;;1.48;100.00;98989.38;4841479;29;20045;-62
2022/01/20 06:36:15;;;;;;;13.70;7.80;;;;;;;1.46;100.00;98983.41;4841512;29;20030;-65
2022/01/20 06:38:42;;;;;;;13.70;7.43;;;;;;;1.45;100.00;98977.31;4840288;29;20446;-67
2022/01/20 06:41:07;;;;;;;16.87;8.37;;;;;;;1.50;100.00;98966.34;4841256;29;20034;-66
2022/01/20 06:43:33;;;;;;;12.30;6.77;;;;;;;1.51;100.00;98952.22;4841210;29;20285;-62
2022/01/20 06:45:59;;;;;;;14.40;7.30;;;;;;;1.48;100.00;98952.50;4841456;29;20428;-65
2022/01/20 06:48:25;;;;;;;13.87;7.20;;;;;;;1.47;100.00;98953.47;4840966;29;20037;-65
2022/01/20 06:50:50;;;;;;;13.00;7.33;;;;;;;1.51;100.00;98954.00;4822072;29;20054;-64
2022/01/20 06:53:16;;;;;;;12.60;7.43;;;;;;;1.48;100.00;98955.16;4822291;29;20084;-63
2022/01/20 06:55:41;;;;;;;13.07;7.57;;;;;;;1.43;100.00;98952.94;4822232;29;20404;-62
2022/01/20 06:58:07;;;;;;;14.43;7.97;;;;;;;1.47;100.00;98965.81;4822694;29;20062;-63
2022/01/20 07:00:32;;;;;;;14.70;8.13;;;;;;;1.36;100.00;98969.44;4822647;29;20034;-63
2022/01/20 07:02:58;;;;;;;16.53;8.13;;;;;;;1.40;100.00;98968.19;4823043;29;20403;-62
2022/01/20 07:05:24;;;;;;;14.40;8.00;;;;;;;1.44;100.00;98982.72;4822633;29;20038;-62
2022/01/20 07:07:50;;;;;;;13.90;7.60;;;;;;;1.49;100.00;98977.88;4822475;29;20033;-62
2022/01/20 07:10:17;;;;;;;15.13;8.60;;;;;;;1.54;100.00;98980.06;4823003;29;20277;-63
2022/01/20 07:12:44;;;;;;;15.17;7.97;;;;;;;1.51;100.00;98975.06;4822475;29;20058;-63
2022/01/20 07:15:10;;;;;;;14.17;7.57;;;;;;;1.54;100.00;98970.34;4822940;29;20278;-63
2022/01/20 07:17:35;;;;;;;13.63;7.80;;;;;;;1.54;100.00;98977.44;4822711;29;20278;-63
2022/01/20 07:20:02;;;;;;;16.43;8.70;;;;;;;1.62;100.00;98969.63;4822358;29;20301;-59
2022/01/20 07:22:27;;;;;;;15.57;7.73;;;;;;;1.76;100.00;98974.44;4821051;29;20503;-59
2022/01/20 07:24:53;;;;;;;14.67;7.70;;;;;;;1.67;100.00;98970.88;4820977;29;20285;-62
2022/01/20 07:27:19;;;;;;;14.63;7.37;;;;;;;1.57;100.00;98971.88;4822429;29;20046;-62
2022/01/20 07:29:44;;;;;;;16.27;8.47;;;;;;;1.60;100.00;98975.06;4821480;29;20030;-63
2022/01/20 07:32:10;;;;;;;14.80;7.53;;;;;;;1.73;100.00;98980.03;4822468;29;20410;-62
2022/01/20 07:34:35;;;;;;;14.57;8.03;;;;;;;1.70;100.00;98975.88;4822536;29;20117;-62
2022/01/20 07:37:01;;;;;;;14.77;7.27;;;;;;;1.71;100.00;98974.88;4822431;29;20034;-62
2022/01/20 07:39:27;;;;;;;12.30;6.97;;;;;;;1.79;100.00;98980.25;4822522;29;20034;-62
2022/01/20 07:41:53;;;;;;;15.13;8.07;;;;;;;1.74;100.00;98979.00;4822313;29;20030;-62
2022/01/20 07:44:19;;;;;;;14.67;7.63;;;;;;;1.81;100.00;98972.22;4816110;29;20284;-61
2022/01/20 07:46:46;;;;;;;15.43;8.00;;;;;;;1.81;100.00;98977.47;4829915;29;20176;-62
2022/01/20 07:49:11;;;;;;;14.47;7.90;;;;;;;1.86;100.00;98974.41;4828777;29;20270;-61
2022/01/20 07:51:37;;;;;;;17.80;9.07;;;;;;;1.83;100.00;98975.53;4826244;29;20276;-61
2022/01/20 07:54:03;;;;;;;14.23;8.23;;;;;;;1.92;100.00;98971.19;4825995;29;20122;-61
2022/01/20 07:56:28;;;;;;;14.03;8.70;;;;;;;1.77;100.00;98990.09;4829825;29;20037;-61
2022/01/20 07:58:53;;;;;;;13.47;7.90;;;;;;;1.83;100.00;98990.50;4830325;29;20282;-61
2022/01/20 08:01:22;;;;;;;15.27;7.97;;;;;;;1.93;100.00;98997.41;4827689;29;20429;-61
2022/01/20 08:03:48;;;;;;;16.83;8.20;;;;;;;1.90;100.00;98999.50;4826083;29;20274;-61
2022/01/20 08:06:14;;;;;;;15.13;8.10;;;;;;;1.97;100.00;98990.84;4825540;29;20284;-61
2022/01/20 08:08:39;;;;;;;13.93;7.83;;;;;;;2.01;100.00;98981.69;4825745;29;20485;-63
2022/01/20 08:11:05;;;;;;;15.73;8.20;;;;;;;2.07;100.00;98988.19;4825088;29;20331;-63
2022/01/20 08:13:30;;;;;;;14.90;8.33;;;;;;;2.03;100.00;98982.38;4822783;29;20042;-64
2022/01/20 08:15:56;;;;;;;13.70;8.57;;;;;;;1.98;100.00;98981.97;4825895;29;20034;-65
2022/01/20 08:18:21;;;;;;;16.33;8.60;;;;;;;2.05;100.00;98983.06;4827443;29;20445;-64
2022/01/20 08:20:47;;;;;;;14.33;8.57;;;;;;;2.01;100.00;98986.13;4840755;29;20129;-63
2022/01/20 08:23:13;;;;;;;18.93;9.13;;;;;;;2.09;100.00;98994.13;4843657;29;20532;-62
2022/01/20 08:25:38;;;;;;;15.83;8.87;;;;;;;2.09;100.00;98996.75;4838557;29;20069;-63
2022/01/20 08:28:04;;;;;;;15.77;8.73;;;;;;;2.17;100.00;98992.44;4823478;29;20034;-62
2022/01/20 08:30:29;;;;;;;14.57;8.73;;;;;;;2.18;100.00;98996.72;4825066;29;20034;-62
2022/01/20 08:32:55;;;;;;;21.10;9.10;;;;;;;2.17;100.00;99002.97;4825343;29;20035;-64
2022/01/20 08:35:22;;;;;;;14.10;8.07;;;;;;;2.21;100.00;98995.59;4825342;29;20496;-63
2022/01/20 08:37:52;;;;;;;13.77;7.83;;;;;;;2.25;100.00;98999.59;4824891;29;20105;-62
2022/01/20 08:40:22;;;;;;;13.60;7.70;;;;;;;2.25;100.00;98996.13;4824873;29;20285;-62
2022/01/20 08:42:49;;;;;;;13.27;7.43;;;;;;;2.30;100.00;99007.91;4823664;29;20262;-62
2022/01/20 08:45:17;;;;;;;14.83;7.73;;;;;;;2.40;100.00;99003.41;4824851;29;20748;-63
2022/01/20 08:47:43;;;;;;;13.00;7.70;;;;;;;2.30;100.00;99000.00;4825287;29;20272;-63
2022/01/20 08:50:11;;;;;;;12.93;7.43;;;;;;;2.33;100.00;99004.97;4825339;29;20356;-64
2022/01/20 08:52:37;;;;;;;13.60;7.70;;;;;;;2.40;100.00;99010.50;4825095;29;20077;-63
2022/01/20 08:55:04;;;;;;;11.10;6.87;;;;;;;2.45;100.00;99006.41;4808694;29;20282;-63
2022/01/20 08:57:30;;;;;;;13.53;7.57;;;;;;;2.44;100.00;99006.56;4824538;29;20274;-63
2022/01/20 08:59:56;;;;;;;12.23;7.50;;;;;;;2.44;100.00;98999.47;4824686;29;20355;-63
2022/01/20 09:02:22;;;;;;;15.90;9.17;;;;;;;2.46;100.00;98983.50;4824511;29;20066;-64
2022/01/20 09:04:51;;;;;;;10.70;6.80;;;;;;;2.49;100.00;98985.84;4837589;29;20053;-64
2022/01/20 09:07:17;;;;;;;11.13;6.97;;;;;;;2.71;100.00;98974.88;4842757;29;20277;-65
2022/01/20 09:09:46;;;;;;;13.47;7.87;;;;;;;2.76;100.00;98963.88;4832102;29;20270;-65
2022/01/20 09:17:29;;;;;;;11.20;6.47;;;;;;;2.84;100.00;98977.97;4824375;29;20628;-65
2022/01/20 09:19:55;;;;;;;10.27;6.07;;;;;;;2.86;100.00;98960.19;4822743;29;20281;-66
2022/01/20 09:22:22;;;;;;;11.13;6.53;;;;;;;2.97;100.00;98968.84;4824310;29;20309;-66
2022/01/20 09:24:48;;;;;;;11.80;6.17;;;;;;;3.06;100.00;98975.84;4829773;29;20787;-66
2022/01/20 09:27:14;;;;;;;19.53;11.07;;;;;;;3.66;100.00;98968.00;4831102;29;20358;-65
2022/01/20 09:29:40;;;;;;;11.60;6.63;;;;;;;3.67;100.00;98978.41;4830194;29;20025;-65
2022/01/20 09:32:09;;;;;;;10.57;5.40;;;;;;;3.34;100.00;98971.28;4840406;29;20266;-65
2022/01/20 09:34:35;;;;;;;8.83;5.27;;;;;;;3.43;100.00;98986.19;4842250;29;20695;-65
2022/01/20 09:37:00;;;;;;;9.43;5.47;;;;;;;3.35;100.00;98986.94;4833468;29;20270;-66
2022/01/20 09:39:26;;;;;;;9.53;5.53;;;;;;;3.33;100.00;98988.94;4824437;29;20034;-65
2022/01/20 09:41:57;;;;;;;11.37;5.60;;;;;;;3.20;100.00;98988.50;4820269;29;20037;-65
2022/01/20 09:44:23;;;;;;;9.00;5.03;;;;;;;3.07;100.00;98994.16;4838543;29;20265;-66
2022/01/20 09:46:48;;;;;;;8.53;5.23;;;;;;;3.22;100.00;99003.22;4837608;29;20285;-66
2022/01/20 09:49:14;;;;;;;8.73;5.57;;;;;;;3.20;100.00;99004.34;4835991;29;20026;-65
2022/01/20 09:51:41;;;;;;;12.97;5.80;;;;;;;3.52;100.00;99001.09;4842172;29;20083;-66
2022/01/20 09:54:07;;;;;;;9.10;5.60;;;;;;;3.55;100.00;99019.28;4830964;29;20125;-66
2022/01/20 09:56:33;;;;;;;10.70;5.80;;;;;;;3.61;100.00;99005.44;4832747;29;20353;-65
2022/01/20 09:58:59;;;;;;;11.07;5.20;;;;;;;3.56;100.00;99003.28;4825005;29;20045;-65
2022/01/20 10:01:40;;;;;;;9.27;5.50;;;;;;;3.90;100.00;99010.41;4823096;29;20350;-65
2022/01/20 10:04:19;;;;;;;10.10;5.43;;;;;;;4.10;100.00;99011.84;4823496;29;20105;-65
2022/01/20 10:06:54;;;;;;;7.83;4.70;;;;;;;4.28;100.00;98995.84;4837525;29;20385;-65
2022/01/20 10:09:49;;;;;;;7.23;4.53;;;;;;;4.13;100.00;99008.06;4840745;29;20277;-66
2022/01/20 10:12:17;;;;;;;7.43;4.77;;;;;;;4.15;100.00;99004.28;4827155;29;21047;-64
2022/01/20 10:14:46;;;;;;;8.67;4.77;;;;;;;4.66;100.00;98999.78;4833348;29;20609;-63
2022/01/20 10:17:22;;;;;;;9.30;4.80;;;;;;;4.46;100.00;99006.34;4827970;29;20284;-63
2022/01/20 10:19:53;;;;;;;6.93;4.20;;;;;;;4.60;100.00;99014.50;4840154;29;20297;-63
2022/01/20 10:22:23;;;;;;;9.10;4.30;;;;;;;4.49;100.00;98998.09;4829942;29;20316;-63
2022/01/20 10:25:11;;;;;;;7.53;4.67;;;;;;;4.99;100.00;98980.31;4820679;29;20288;-62
2022/01/20 10:27:49;;;;;;;6.67;4.30;;;;;;;4.84;100.00;98999.66;4816892;29;20837;-64
2022/01/20 10:30:15;;;;;;;6.77;4.23;;;;;;;5.70;100.00;98987.53;4822761;29;20311;-62
2022/01/20 10:32:49;;;;;;;8.20;4.53;;;;;;;5.33;100.00;98995.19;4806133;29;20290;-62
2022/01/20 10:35:15;;;;;;;;;;;;;;;4.76;100.00;98989.88;4823550;29;20277;-62
2022/01/20 10:38:09;;;;;;;7.43;4.50;;;;;;;4.15;100.00;98982.28;4823153;29;19928;-62
2022/01/20 10:40:48;;;;;;;8.02;4.40;;;;;;;4.06;100.00;98968.19;4822729;29;20286;-62
2022/01/20 10:43:23;;;;;;;7.70;4.37;;;;;;;3.91;100.00;98985.66;4822825;29;20045;-62
2022/01/20 10:46:00;;;;;;;7.60;4.63;;;;;;;3.77;100.00;98979.13;4821454;29;20317;-62
2022/01/20 10:48:25;;;;;;;8.40;5.10;;;;;;;4.00;100.00;98974.94;4820375;29;20269;-61
2022/01/20 10:50:51;;;;;;;7.53;4.47;;;;;;;4.10;100.00;98974.00;4820764;29;20280;-61
2022/01/20 10:53:22;;;;;;;10.30;5.30;;;;;;;3.96;100.00;98980.69;4821386;29;20396;-62
2022/01/20 10:56:03;;;;;;;8.43;4.70;;;;;;;3.86;100.00;98977.34;4822622;29;20191;-62
2022/01/20 10:58:29;;;;;;;9.80;5.30;;;;;;;4.05;100.00;98965.69;4822278;29;20762;-61
2022/01/20 11:00:56;;;;;;;8.87;5.03;;;;;;;3.86;100.00;98966.78;4821370;29;20301;-62
2022/01/20 11:03:24;;;;;;;8.27;4.70;;;;;;;3.88;100.00;98959.53;4821954;29;20067;-61
2022/01/20 11:05:51;;;;;;;10.23;5.00;;;;;;;3.89;100.00;98954.09;4822542;29;20789;-61
2022/01/20 11:08:17;;;;;;;8.47;5.30;;;;;;;4.02;100.00;98953.63;4828429;29;20287;-62
2022/01/20 11:10:44;;;;;;;8.30;5.27;;;;;;;4.24;100.00;98947.78;4822157;29;20296;-61
2022/01/20 11:13:11;;;;;;;7.80;4.87;;;;;;;4.30;100.00;98948.94;4824690;29;20644;-61
2022/01/20 11:15:38;;;;;;;8.37;4.43;;;;;;;3.98;100.00;98963.69;4822483;29;20270;-62
2022/01/20 11:18:04;;;;;;;7.23;4.60;;;;;;;4.09;100.00;98948.53;4822237;29;20309;-60
2022/01/20 11:20:39;;;;;;;7.87;4.30;;;;;;;3.80;100.00;98964.78;4822311;29;20314;-62
2022/01/20 11:23:09;;;;;;;8.70;5.10;;;;;;;4.06;100.00;98947.03;4822344;29;20309;-62
2022/01/20 11:25:37;;;;;;;9.67;5.17;;;;;;;3.99;100.00;98938.09;4820910;29;20419;-62
2022/01/20 11:28:10;;;;;;;10.50;5.30;;;;;;;4.14;100.00;98939.16;4821855;29;20704;-62
2022/01/20 11:30:42;;;;;;;7.80;4.78;;;;;;;3.87;100.00;98948.13;4822307;29;20270;-62
2022/01/20 11:33:09;;;;;;;7.73;4.77;;;;;;;3.87;100.00;98928.78;4824869;29;20404;-63
2022/01/20 11:35:54;;;;;;;8.37;5.07;;;;;;;4.11;100.00;98936.81;4824290;29;20350;-63
2022/01/20 11:38:21;;;;;;;8.33;4.30;;;;;;;3.99;100.00;98930.16;4822345;29;20334;-62
2022/01/20 11:40:53;;;;;;;8.23;4.60;;;;;;;3.99;100.00;98925.69;4829206;29;20298;-61
2022/01/20 11:43:19;;;;;;;8.63;5.30;;;;;;;4.54;100.00;98917.22;4830583;29;20279;-60
2022/01/20 11:45:50;;;;;;;7.10;4.47;;;;;;;4.54;100.00;98919.03;4823873;29;20269;-61
2022/01/20 11:48:19;;;;;;;8.00;4.37;;;;;;;3.99;100.00;98920.41;4840136;29;20278;-64
2022/01/20 11:50:46;;;;;;;8.20;4.60;;;;;;;3.99;100.00;98909.84;4830831;29;20278;-64
2022/01/20 11:53:14;;;;;;;8.87;4.40;;;;;;;3.91;100.00;98912.47;4830954;29;20297;-64
2022/01/20 11:55:46;;;;;;;7.77;4.80;;;;;;;3.92;100.00;98898.22;4826900;29;20787;-64
2022/01/20 11:58:13;;;;;;;7.97;4.20;;;;;;;3.93;100.00;98897.25;4821906;29;20365;-64
2022/01/20 12:00:38;;;;;;;10.23;4.40;;;;;;;3.94;100.00;98898.06;4821631;29;20368;-63
2022/01/20 12:03:13;;;;;;;8.50;4.63;;;;;;;3.99;100.00;98899.25;4821645;29;20402;-64
2022/01/20 12:05:39;;;;;;;6.83;4.10;;;;;;;3.97;100.00;98903.03;4820549;29;20393;-64
2022/01/20 12:08:10;;;;;;;7.47;4.37;;;;;;;3.85;100.00;98914.91;4820289;29;20282;-64
2022/01/20 12:10:40;;;;;;;6.87;4.50;;;;;;;3.97;100.00;98887.19;4820237;29;20026;-64
2022/01/20 12:13:08;;;;;;;7.57;4.00;;;;;;;4.07;100.00;98874.66;4821910;29;20641;-64
2022/01/20 12:15:34;;;;;;;7.67;4.17;;;;;;;3.95;100.00;98882.06;4820542;29;20285;-64
2022/01/20 12:17:59;;;;;;;8.73;4.43;;;;;;;4.03;100.00;98857.47;4821649;29;20357;-64
2022/01/20 12:20:26;;;;;;;9.07;4.00;;;;;;;4.10;100.00;98857.63;4821865;29;20413;-64
2022/01/20 12:22:53;;;;;;;6.63;3.60;;;;;;;3.96;100.00;98854.63;4821846;29;20038;-64
2022/01/20 12:25:37;;;;;;;6.63;3.70;;;;;;;3.89;100.00;98847.53;4814314;29;20622;-64
2022/01/20 12:28:05;;;;;;;6.90;3.47;;;;;;;4.03;100.00;98848.72;4805693;29;20290;-64
2022/01/20 12:30:31;;;;;;;9.00;3.97;;;;;;;3.93;100.00;98851.47;4803676;29;20267;-64
2022/01/20 12:33:07;;;;;;;6.90;3.83;;;;;;;3.86;100.00;98840.72;4803402;29;21052;-64
2022/01/20 12:35:42;;;;;;;6.77;3.60;;;;;;;3.92;100.00;98829.50;4803895;29;20041;-64